sensor_id;sensor_type;location;lat;lon;timestamp;pressure;altitude;pressure_sealevel;temperature;humidity
49216;BME280;45943;53.148;8.204;2022-11-28T00:00:26;101359.22;;;7.52;100.00
49216;BME280;45943;53.148;8.204;2022-11-28T00:02:53;101357.72;;;7.48;100.00
49216;BME280;45943;53.148;8.204;2022-11-28T00:05:19;101346.38;;;7.59;100.00
49216;BME280;45943;53.148;8.204;2022-11-28T00:07:45;101336.38;;;7.62;100.00
49216;BME280;45943;53.148;8.204;2022-11-28T00:10:11;101327.22;;;7.66;100.00
49216;BME280;45943;53.148;8.204;2022-11-28T00:12:37;101321.13;;;7.64;100.00
49216;BME280;45943;53.148;8.204;2022-11-28T00:15:03;101325.59;;;7.64;100.00
49216;BME280;45943;53.148;8.204;2022-11-28T00:17:30;101325.03;;;7.59;100.00
49216;BME280;45943;53.148;8.204;2022-11-28T00:19:56;101321.75;;;7.54;100.00
49216;BME280;45943;53.148;8.204;2022-11-28T00:22:23;101323.66;;;7.52;100.00
49216;BME280;45943;53.148;8.204;2022-11-28T00:24:52;101312.69;;;7.56;100.00
49216;BME280;45943;53.148;8.204;2022-11-28T00:27:18;101324.34;;;7.55;100.00
49216;BME280;45943;53.148;8.204;2022-11-28T00:29:44;101313.00;;;7.52;100.00
49216;BME280;45943;53.148;8.204;2022-11-28T00:32:10;101312.03;;;7.53;100.00
49216;BME280;45943;53.148;8.204;2022-11-28T00:34:36;101307.75;;;7.50;100.00
49216;BME280;45943;53.148;8.204;2022-11-28T00:37:02;101303.06;;;7.54;100.00
49216;BME280;45943;53.148;8.204;2022-11-28T00:39:28;101297.38;;;7.60;100.00
49216;BME280;45943;53.148;8.204;2022-11-28T00:41:54;101301.66;;;7.62;100.00
49216;BME280;45943;53.148;8.204;2022-11-28T00:44:20;101286.50;;;7.63;100.00
49216;BME280;45943;53.148;8.204;2022-11-28T00:46:46;101287.16;;;7.52;100.00
49216;BME280;45943;53.148;8.204;2022-11-28T00:49:12;101283.63;;;7.52;100.00
49216;BME280;45943;53.148;8.204;2022-11-28T00:51:38;101278.38;;;7.50;100.00
49216;BME280;45943;53.148;8.204;2022-11-28T00:54:04;101273.81;;;7.52;100.00
49216;BME280;45943;53.148;8.204;2022-11-28T00:56:32;101271.03;;;7.54;100.00
49216;BME280;45943;53.148;8.204;2022-11-28T00:59:02;101265.59;;;7.41;100.00
49216;BME280;45943;53.148;8.204;2022-11-28T01:01:30;101257.69;;;7.39;100.00
49216;BME280;45943;53.148;8.204;2022-11-28T01:03:58;101257.09;;;7.34;100.00
49216;BME280;45943;53.148;8.204;2022-11-28T01:06:29;101249.09;;;7.34;100.00
49216;BME280;45943;53.148;8.204;2022-11-28T01:09:07;101243.09;;;7.31;100.00
49216;BME280;45943;53.148;8.204;2022-11-28T01:11:37;101236.91;;;7.30;100.00
49216;BME280;45943;53.148;8.204;2022-11-28T01:14:04;101236.63;;;7.49;100.00
49216;BME280;45943;53.148;8.204;2022-11-28T01:16:30;101241.19;;;7.47;100.00
49216;BME280;45943;53.148;8.204;2022-11-28T01:18:56;101240.31;;;7.46;100.00
49216;BME280;45943;53.148;8.204;2022-11-28T01:21:22;101246.47;;;7.48;100.00
49216;BME280;45943;53.148;8.204;2022-11-28T01:23:49;101241.19;;;7.47;100.00
49216;BME280;45943;53.148;8.204;2022-11-28T01:26:16;101235.84;;;7.47;100.00
49216;BME280;45943;53.148;8.204;2022-11-28T01:28:45;101235.00;;;7.46;100.00
49216;BME280;45943;53.148;8.204;2022-11-28T01:31:13;101233.13;;;7.48;100.00
49216;BME280;45943;53.148;8.204;2022-11-28T01:33:41;101232.06;;;7.51;100.00
49216;BME280;45943;53.148;8.204;2022-11-28T01:36:07;101223.00;;;7.54;100.00
49216;BME280;45943;53.148;8.204;2022-11-28T01:38:35;101224.06;;;7.51;100.00
49216;BME280;45943;53.148;8.204;2022-11-28T01:41:01;101228.44;;;7.52;100.00
49216;BME280;45943;53.148;8.204;2022-11-28T01:43:28;101218.59;;;7.53;100.00
49216;BME280;45943;53.148;8.204;2022-11-28T01:45:53;101218.72;;;7.51;100.00
49216;BME280;45943;53.148;8.204;2022-11-28T01:48:27;101217.66;;;7.54;100.00
49216;BME280;45943;53.148;8.204;2022-11-28T01:50:59;101209.66;;;7.54;100.00
49216;BME280;45943;53.148;8.204;2022-11-28T01:53:30;101200.78;;;7.53;100.00
49216;BME280;45943;53.148;8.204;2022-11-28T01:56:02;101210.41;;;7.41;100.00
49216;BME280;45943;53.148;8.204;2022-11-28T01:58:32;101203.91;;;7.45;100.00
49216;BME280;45943;53.148;8.204;2022-11-28T02:01:01;101195.75;;;7.48;100.00
49216;BME280;45943;53.148;8.204;2022-11-28T02:03:29;101190.22;;;7.52;100.00
49216;BME280;45943;53.148;8.204;2022-11-28T02:05:58;101192.78;;;7.53;100.00
49216;BME280;45943;53.148;8.204;2022-11-28T02:08:24;101184.88;;;7.52;100.00
49216;BME280;45943;53.148;8.204;2022-11-28T02:13:39;101190.31;;;7.50;100.00
49216;BME280;45943;53.148;8.204;2022-11-28T02:16:43;101173.50;;;7.62;100.00
49216;BME280;45943;53.148;8.204;2022-11-28T02:22:24;101182.47;;;7.75;100.00
49216;BME280;45943;53.148;8.204;2022-11-28T02:25:08;101176.34;;;7.73;100.00
49216;BME280;45943;53.148;8.204;2022-11-28T02:27:54;101175.41;;;7.74;100.00
49216;BME280;45943;53.148;8.204;2022-11-28T02:31:09;101168.44;;;7.72;100.00
49216;BME280;45943;53.148;8.204;2022-11-28T02:33:45;101165.78;;;7.72;100.00
49216;BME280;45943;53.148;8.204;2022-11-28T02:36:23;101167.13;;;7.65;100.00
49216;BME280;45943;53.148;8.204;2022-11-28T02:38:59;101160.75;;;7.67;100.00
49216;BME280;45943;53.148;8.204;2022-11-28T02:41:33;101157.97;;;7.69;100.00
49216;BME280;45943;53.148;8.204;2022-11-28T02:44:17;101147.94;;;7.72;100.00
49216;BME280;45943;53.148;8.204;2022-11-28T02:46:51;101137.66;;;7.66;100.00
49216;BME280;45943;53.148;8.204;2022-11-28T02:49:25;101144.72;;;7.67;100.00
49216;BME280;45943;53.148;8.204;2022-11-28T02:51:57;101154.53;;;7.67;100.00
49216;BME280;45943;53.148;8.204;2022-11-28T02:54:27;101157.41;;;7.64;100.00
49216;BME280;45943;53.148;8.204;2022-11-28T02:56:56;101151.59;;;7.57;100.00
49216;BME280;45943;53.148;8.204;2022-11-28T03:01:53;101154.06;;;7.60;100.00
49216;BME280;45943;53.148;8.204;2022-11-28T03:04:29;101149.38;;;7.64;100.00
49216;BME280;45943;53.148;8.204;2022-11-28T03:07:16;101137.56;;;7.68;100.00
49216;BME280;45943;53.148;8.204;2022-11-28T03:13:09;101130.00;;;7.74;100.00
49216;BME280;45943;53.148;8.204;2022-11-28T03:18:36;101134.97;;;7.81;100.00
49216;BME280;45943;53.148;8.204;2022-11-28T03:21:12;101136.69;;;7.82;100.00
49216;BME280;45943;53.148;8.204;2022-11-28T03:23:58;101133.63;;;7.88;100.00
49216;BME280;45943;53.148;8.204;2022-11-28T03:26:35;101137.06;;;7.90;100.00
49216;BME280;45943;53.148;8.204;2022-11-28T03:29:18;101142.78;;;7.84;100.00
49216;BME280;45943;53.148;8.204;2022-11-28T03:31:54;101134.00;;;7.82;100.00
49216;BME280;45943;53.148;8.204;2022-11-28T03:34:26;101135.81;;;7.81;100.00
49216;BME280;45943;53.148;8.204;2022-11-28T03:37:07;101141.81;;;7.85;100.00
49216;BME280;45943;53.148;8.204;2022-11-28T03:39:38;101135.72;;;7.83;100.00
49216;BME280;45943;53.148;8.204;2022-11-28T03:44:41;101128.47;;;7.85;100.00
49216;BME280;45943;53.148;8.204;2022-11-28T03:47:19;101128.47;;;7.85;100.00
49216;BME280;45943;53.148;8.204;2022-11-28T03:49:52;101126.56;;;7.87;100.00
49216;BME280;45943;53.148;8.204;2022-11-28T03:52:25;101132.78;;;7.87;100.00
49216;BME280;45943;53.148;8.204;2022-11-28T03:55:02;101119.84;;;7.94;100.00
49216;BME280;45943;53.148;8.204;2022-11-28T03:57:37;101126.16;;;7.93;100.00
49216;BME280;45943;53.148;8.204;2022-11-28T04:00:10;101116.31;;;7.93;100.00
49216;BME280;45943;53.148;8.204;2022-11-28T04:02:40;101114.50;;;7.94;100.00
49216;BME280;45943;53.148;8.204;2022-11-28T04:05:24;101114.94;;;7.88;100.00
49216;BME280;45943;53.148;8.204;2022-11-28T04:08:16;101126.66;;;7.85;100.00
49216;BME280;45943;53.148;8.204;2022-11-28T04:13:41;101120.59;;;7.96;100.00
49216;BME280;45943;53.148;8.204;2022-11-28T04:19:25;101131.72;;;7.90;100.00
49216;BME280;45943;53.148;8.204;2022-11-28T04:22:01;101119.00;;;7.93;100.00
49216;BME280;45943;53.148;8.204;2022-11-28T04:24:36;101120.53;;;7.97;100.00
49216;BME280;45943;53.148;8.204;2022-11-28T04:27:07;101117.94;;;7.96;100.00
49216;BME280;45943;53.148;8.204;2022-11-28T04:29:40;101122.53;;;7.94;100.00
49216;BME280;45943;53.148;8.204;2022-11-28T04:32:12;101115.94;;;7.99;100.00
49216;BME280;45943;53.148;8.204;2022-11-28T04:34:44;101110.88;;;7.95;100.00
49216;BME280;45943;53.148;8.204;2022-11-28T04:37:15;101114.06;;;7.87;100.00
49216;BME280;45943;53.148;8.204;2022-11-28T04:39:45;101111.03;;;7.79;100.00
49216;BME280;45943;53.148;8.204;2022-11-28T04:42:20;101107.94;;;7.85;100.00
49216;BME280;45943;53.148;8.204;2022-11-28T04:44:56;101106.91;;;7.88;100.00
49216;BME280;45943;53.148;8.204;2022-11-28T04:47:27;101109.16;;;7.94;100.00
49216;BME280;45943;53.148;8.204;2022-11-28T04:49:54;101108.88;;;7.98;100.00
49216;BME280;45943;53.148;8.204;2022-11-28T04:58:05;101098.38;;;7.95;100.00
49216;BME280;45943;53.148;8.204;2022-11-28T05:00:37;101099.81;;;8.01;100.00
49216;BME280;45943;53.148;8.204;2022-11-28T05:03:05;101094.81;;;8.09;100.00
49216;BME280;45943;53.148;8.204;2022-11-28T05:05:40;101099.56;;;8.18;100.00
49216;BME280;45943;53.148;8.204;2022-11-28T05:08:08;101091.28;;;8.09;100.00
49216;BME280;45943;53.148;8.204;2022-11-28T05:10:34;101098.34;;;8.10;100.00
49216;BME280;45943;53.148;8.204;2022-11-28T05:13:00;101099.00;;;8.13;100.00
49216;BME280;45943;53.148;8.204;2022-11-28T05:15:27;101103.25;;;8.16;100.00
49216;BME280;45943;53.148;8.204;2022-11-28T05:17:53;101098.63;;;8.05;100.00
49216;BME280;45943;53.148;8.204;2022-11-28T05:20:19;101108.31;;;7.93;100.00
49216;BME280;45943;53.148;8.204;2022-11-28T05:22:45;101104.91;;;7.91;100.00
49216;BME280;45943;53.148;8.204;2022-11-28T05:25:11;101105.75;;;7.92;100.00
49216;BME280;45943;53.148;8.204;2022-11-28T05:27:37;101119.00;;;7.93;100.00
49216;BME280;45943;53.148;8.204;2022-11-28T05:30:04;101110.03;;;7.94;100.00
49216;BME280;45943;53.148;8.204;2022-11-28T05:32:31;101112.94;;;8.04;100.00
49216;BME280;45943;53.148;8.204;2022-11-28T05:34:57;101114.66;;;8.05;100.00
49216;BME280;45943;53.148;8.204;2022-11-28T05:37:24;101104.09;;;8.03;100.00
49216;BME280;45943;53.148;8.204;2022-11-28T05:39:50;101106.47;;;8.08;100.00
49216;BME280;45943;53.148;8.204;2022-11-28T05:42:16;101105.50;;;8.09;100.00
49216;BME280;45943;53.148;8.204;2022-11-28T05:44:42;101104.81;;;8.05;100.00
49216;BME280;45943;53.148;8.204;2022-11-28T05:47:08;101100.53;;;8.17;100.00
49216;BME280;45943;53.148;8.204;2022-11-28T05:49:34;101098.75;;;8.03;100.00
49216;BME280;45943;53.148;8.204;2022-11-28T05:52:01;101108.34;;;8.06;100.00
49216;BME280;45943;53.148;8.204;2022-11-28T05:54:27;101103.97;;;8.05;100.00
49216;BME280;45943;53.148;8.204;2022-11-28T05:56:55;101101.72;;;7.99;100.00
49216;BME280;45943;53.148;8.204;2022-11-28T05:59:21;101107.94;;;7.99;100.00
49216;BME280;45943;53.148;8.204;2022-11-28T06:01:47;101105.03;;;8.02;100.00
49216;BME280;45943;53.148;8.204;2022-11-28T06:04:13;101108.78;;;8.00;100.00
49216;BME280;45943;53.148;8.204;2022-11-28T06:06:39;101120.91;;;7.91;100.00
49216;BME280;45943;53.148;8.204;2022-11-28T06:09:05;101124.81;;;7.86;100.00
49216;BME280;45943;53.148;8.204;2022-11-28T06:11:31;101128.34;;;7.86;100.00
49216;BME280;45943;53.148;8.204;2022-11-28T06:13:59;101130.38;;;7.83;100.00
49216;BME280;45943;53.148;8.204;2022-11-28T06:16:26;101126.31;;;7.77;100.00
49216;BME280;45943;53.148;8.204;2022-11-28T06:18:54;101127.44;;;7.73;100.00
49216;BME280;45943;53.148;8.204;2022-11-28T06:21:21;101131.38;;;7.67;100.00
49216;BME280;45943;53.148;8.204;2022-11-28T06:23:47;101129.75;;;7.65;100.00
49216;BME280;45943;53.148;8.204;2022-11-28T06:26:14;101128.50;;;7.70;100.00
49216;BME280;45943;53.148;8.204;2022-11-28T06:28:42;101127.56;;;7.43;100.00
49216;BME280;45943;53.148;8.204;2022-11-28T06:31:27;101127.94;;;7.37;100.00
49216;BME280;45943;53.148;8.204;2022-11-28T06:33:55;101134.81;;;7.27;100.00
49216;BME280;45943;53.148;8.204;2022-11-28T06:36:22;101139.22;;;7.28;100.00
49216;BME280;45943;53.148;8.204;2022-11-28T06:38:49;101140.25;;;7.25;100.00
49216;BME280;45943;53.148;8.204;2022-11-28T06:41:16;101137.88;;;7.21;100.00
49216;BME280;45943;53.148;8.204;2022-11-28T06:43:43;101145.19;;;7.17;100.00
49216;BME280;45943;53.148;8.204;2022-11-28T06:46:10;101139.19;;;7.13;100.00
49216;BME280;45943;53.148;8.204;2022-11-28T06:48:37;101146.06;;;7.46;100.00
49216;BME280;45943;53.148;8.204;2022-11-28T06:51:03;101140.16;;;7.41;100.00
49216;BME280;45943;53.148;8.204;2022-11-28T06:53:31;101153.72;;;7.38;100.00
49216;BME280;45943;53.148;8.204;2022-11-28T06:56:02;101149.78;;;7.43;100.00
49216;BME280;45943;53.148;8.204;2022-11-28T06:58:30;101149.69;;;7.31;100.00
49216;BME280;45943;53.148;8.204;2022-11-28T07:00:56;101154.94;;;7.32;100.00
49216;BME280;45943;53.148;8.204;2022-11-28T07:03:22;101156.00;;;7.30;100.00
49216;BME280;45943;53.148;8.204;2022-11-28T07:05:48;101151.41;;;7.32;100.00
49216;BME280;45943;53.148;8.204;2022-11-28T07:08:14;101160.91;;;7.07;100.00
49216;BME280;45943;53.148;8.204;2022-11-28T07:10:40;101158.06;;;7.25;100.00
49216;BME280;45943;53.148;8.204;2022-11-28T07:13:06;101162.28;;;7.29;100.00
49216;BME280;45943;53.148;8.204;2022-11-28T07:15:32;101164.75;;;7.32;100.00
49216;BME280;45943;53.148;8.204;2022-11-28T07:17:58;101160.56;;;7.28;100.00
49216;BME280;45943;53.148;8.204;2022-11-28T07:20:24;101164.38;;;7.24;100.00
49216;BME280;45943;53.148;8.204;2022-11-28T07:22:50;101170.28;;;7.29;100.00
49216;BME280;45943;53.148;8.204;2022-11-28T07:25:16;101168.75;;;7.25;100.00
49216;BME280;45943;53.148;8.204;2022-11-28T07:27:42;101182.84;;;7.27;100.00
49216;BME280;45943;53.148;8.204;2022-11-28T07:30:08;101174.47;;;7.33;100.00
49216;BME280;45943;53.148;8.204;2022-11-28T07:32:37;101168.19;;;7.34;100.00
49216;BME280;45943;53.148;8.204;2022-11-28T07:35:05;101176.28;;;7.32;100.00
49216;BME280;45943;53.148;8.204;2022-11-28T07:37:32;101184.19;;;7.34;100.00
49216;BME280;45943;53.148;8.204;2022-11-28T07:39:59;101186.28;;;7.29;100.00
49216;BME280;45943;53.148;8.204;2022-11-28T07:42:26;101180.56;;;7.35;100.00
49216;BME280;45943;53.148;8.204;2022-11-28T07:44:52;101174.09;;;7.39;100.00
49216;BME280;45943;53.148;8.204;2022-11-28T07:47:18;101178.47;;;7.40;100.00
49216;BME280;45943;53.148;8.204;2022-11-28T07:49:44;101186.84;;;7.34;100.00
49216;BME280;45943;53.148;8.204;2022-11-28T07:52:10;101175.69;;;6.99;100.00
49216;BME280;45943;53.148;8.204;2022-11-28T07:54:36;101186.66;;;7.23;100.00
49216;BME280;45943;53.148;8.204;2022-11-28T07:57:02;101188.88;;;7.30;100.00
49216;BME280;45943;53.148;8.204;2022-11-28T07:59:28;101174.56;;;7.31;100.00
49216;BME280;45943;53.148;8.204;2022-11-28T08:01:54;101176.28;;;7.32;100.00
49216;BME280;45943;53.148;8.204;2022-11-28T08:04:20;101178.94;;;7.32;100.00
49216;BME280;45943;53.148;8.204;2022-11-28T08:06:46;101190.97;;;7.39;100.00
49216;BME280;45943;53.148;8.204;2022-11-28T08:09:12;101184.84;;;7.37;100.00
49216;BME280;45943;53.148;8.204;2022-11-28T08:11:38;101184.47;;;7.43;100.00
49216;BME280;45943;53.148;8.204;2022-11-28T08:14:04;101185.22;;;7.45;100.00
49216;BME280;45943;53.148;8.204;2022-11-28T08:16:31;101189.44;;;7.50;100.00
49216;BME280;45943;53.148;8.204;2022-11-28T08:19:00;101187.81;;;7.47;100.00
49216;BME280;45943;53.148;8.204;2022-11-28T08:21:28;101187.53;;;7.52;100.00
49216;BME280;45943;53.148;8.204;2022-11-28T08:23:57;101187.63;;;7.50;100.00
49216;BME280;45943;53.148;8.204;2022-11-28T08:26:27;101182.09;;;7.53;100.00
49216;BME280;45943;53.148;8.204;2022-11-28T08:28:55;101181.25;;;7.53;100.00
49216;BME280;45943;53.148;8.204;2022-11-28T08:31:23;101191.03;;;7.24;100.00
49216;BME280;45943;53.148;8.204;2022-11-28T08:33:51;101183.25;;;7.49;100.00
49216;BME280;45943;53.148;8.204;2022-11-28T08:36:19;101194.19;;;7.30;100.00
49216;BME280;45943;53.148;8.204;2022-11-28T08:38:48;101202.03;;;7.47;100.00
49216;BME280;45943;53.148;8.204;2022-11-28T08:41:18;101190.09;;;7.53;100.00
49216;BME280;45943;53.148;8.204;2022-11-28T08:43:46;101190.88;;;7.55;100.00
49216;BME280;45943;53.148;8.204;2022-11-28T08:46:14;101193.25;;;7.45;100.00
49216;BME280;45943;53.148;8.204;2022-11-28T08:48:42;101194.94;;;7.46;100.00
49216;BME280;45943;53.148;8.204;2022-11-28T08:51:12;101196.41;;;7.38;100.00
49216;BME280;45943;53.148;8.204;2022-11-28T08:53:40;101199.63;;;7.43;100.00
49216;BME280;45943;53.148;8.204;2022-11-28T08:56:07;101206.38;;;7.20;100.00
49216;BME280;45943;53.148;8.204;2022-11-28T08:58:34;101206.56;;;7.17;100.00
49216;BME280;45943;53.148;8.204;2022-11-28T09:01:00;101198.56;;;7.17;100.00
49216;BME280;45943;53.148;8.204;2022-11-28T09:03:26;101218.38;;;7.27;100.00
49216;BME280;45943;53.148;8.204;2022-11-28T09:05:52;101219.88;;;7.03;100.00
49216;BME280;45943;53.148;8.204;2022-11-28T09:08:19;101220.63;;;7.05;100.00
49216;BME280;45943;53.148;8.204;2022-11-28T09:10:46;101218.66;;;7.08;100.00
49216;BME280;45943;53.148;8.204;2022-11-28T09:13:13;101217.47;;;7.28;100.00
49216;BME280;45943;53.148;8.204;2022-11-28T09:15:40;101223.00;;;7.54;100.00
49216;BME280;45943;53.148;8.204;2022-11-28T09:18:07;101216.34;;;7.61;100.00
49216;BME280;45943;53.148;8.204;2022-11-28T09:20:33;101215.38;;;7.62;100.00
49216;BME280;45943;53.148;8.204;2022-11-28T09:23:00;101217.38;;;7.58;100.00
49216;BME280;45943;53.148;8.204;2022-11-28T09:25:26;101214.53;;;7.61;100.00
49216;BME280;45943;53.148;8.204;2022-11-28T09:27:52;101216.72;;;7.69;100.00
49216;BME280;45943;53.148;8.204;2022-11-28T09:30:18;101211.66;;;7.64;100.00
49216;BME280;45943;53.148;8.204;2022-11-28T09:32:50;101207.47;;;7.60;100.00
49216;BME280;45943;53.148;8.204;2022-11-28T09:35:16;101209.56;;;7.69;100.00
49216;BME280;45943;53.148;8.204;2022-11-28T09:37:42;101208.50;;;7.72;100.00
49216;BME280;45943;53.148;8.204;2022-11-28T09:40:42;101208.22;;;7.62;100.00
49216;BME280;45943;53.148;8.204;2022-11-28T09:43:14;101209.53;;;7.55;100.00
49216;BME280;45943;53.148;8.204;2022-11-28T09:45:50;101205.91;;;7.56;100.00
49216;BME280;45943;53.148;8.204;2022-11-28T09:48:26;101205.91;;;7.56;100.00
49216;BME280;45943;53.148;8.204;2022-11-28T09:51:00;101208.31;;;7.75;100.00
49216;BME280;45943;53.148;8.204;2022-11-28T09:56:21;101212.13;;;7.42;100.00
49216;BME280;45943;53.148;8.204;2022-11-28T09:58:53;101215.44;;;7.46;100.00
49216;BME280;45943;53.148;8.204;2022-11-28T10:04:07;101212.97;;;7.43;100.00
49216;BME280;45943;53.148;8.204;2022-11-28T10:20:22;101199.66;;;7.57;100.00
49216;BME280;45943;53.148;8.204;2022-11-28T10:22:54;101205.38;;;7.51;100.00
49216;BME280;45943;53.148;8.204;2022-11-28T10:27:52;101207.75;;;7.70;100.00
49216;BME280;45943;53.148;8.204;2022-11-28T10:30:21;101201.78;;;8.08;100.00
49216;BME280;45943;53.148;8.204;2022-11-28T10:32:55;101199.88;;;7.95;100.00
49216;BME280;45943;53.148;8.204;2022-11-28T10:46:08;101223.94;;;7.67;100.00
49216;BME280;45943;53.148;8.204;2022-11-28T10:52:18;101212.88;;;7.73;100.00
49216;BME280;45943;53.148;8.204;2022-11-28T10:55:02;101217.38;;;7.58;100.00
49216;BME280;45943;53.148;8.204;2022-11-28T10:57:48;101219.66;;;7.50;100.00
49216;BME280;45943;53.148;8.204;2022-11-28T11:00:23;101216.44;;;7.59;100.00
49216;BME280;45943;53.148;8.204;2022-11-28T11:02:50;101214.41;;;7.63;100.00
49216;BME280;45943;53.148;8.204;2022-11-28T11:05:20;101222.59;;;7.45;100.00
49216;BME280;45943;53.148;8.204;2022-11-28T11:07:51;101221.66;;;7.32;100.00
49216;BME280;45943;53.148;8.204;2022-11-28T11:10:20;101223.84;;;7.40;100.00
49216;BME280;45943;53.148;8.204;2022-11-28T11:12:51;101216.13;;;7.35;100.00
49216;BME280;45943;53.148;8.204;2022-11-28T11:15:19;101223.09;;;7.38;100.00
49216;BME280;45943;53.148;8.204;2022-11-28T11:17:54;101226.38;;;7.27;100.00
49216;BME280;45943;53.148;8.204;2022-11-28T11:22:58;101223.75;;;7.41;100.00
49216;BME280;45943;53.148;8.204;2022-11-28T11:25:44;101218.31;;;7.43;100.00
49216;BME280;45943;53.148;8.204;2022-11-28T11:33:45;101216.31;;;7.46;100.00
49216;BME280;45943;53.148;8.204;2022-11-28T11:36:19;101209.09;;;7.48;100.00
49216;BME280;45943;53.148;8.204;2022-11-28T11:38:48;101214.69;;;7.44;100.00
49216;BME280;45943;53.148;8.204;2022-11-28T11:41:27;101218.59;;;7.53;100.00
49216;BME280;45943;53.148;8.204;2022-11-28T11:43:55;101216.16;;;7.50;100.00
49216;BME280;45943;53.148;8.204;2022-11-28T11:46:52;101221.94;;;7.56;100.00
49216;BME280;45943;53.148;8.204;2022-11-28T11:49:39;101220.78;;;7.74;100.00
49216;BME280;45943;53.148;8.204;2022-11-28T11:57:23;101216.78;;;7.82;100.00
49216;BME280;45943;53.148;8.204;2022-11-28T11:59:50;101211.94;;;7.74;100.00
49216;BME280;45943;53.148;8.204;2022-11-28T12:02:29;101219.28;;;7.70;100.00
49216;BME280;45943;53.148;8.204;2022-11-28T12:05:01;101217.69;;;7.68;100.00
49216;BME280;45943;53.148;8.204;2022-11-28T12:07:43;101213.34;;;7.65;100.00
49216;BME280;45943;53.148;8.204;2022-11-28T12:10:20;101215.28;;;7.63;100.00
49216;BME280;45943;53.148;8.204;2022-11-28T12:12:49;101214.03;;;7.69;100.00
49216;BME280;45943;53.148;8.204;2022-11-28T12:15:16;101217.09;;;7.63;100.00
49216;BME280;45943;53.148;8.204;2022-11-28T12:23:27;101209.84;;;7.79;100.00
49216;BME280;45943;53.148;8.204;2022-11-28T12:28:58;101208.22;;;7.62;100.00
49216;BME280;45943;53.148;8.204;2022-11-28T12:31:40;101216.03;;;7.65;100.00
49216;BME280;45943;53.148;8.204;2022-11-28T12:34:32;101210.59;;;7.67;100.00
49216;BME280;45943;53.148;8.204;2022-11-28T12:42:37;101213.84;;;7.72;100.00
49216;BME280;45943;53.148;8.204;2022-11-28T12:45:26;101213.75;;;7.73;100.00
49216;BME280;45943;53.148;8.204;2022-11-28T12:54:13;101200.13;;;7.78;100.00
49216;BME280;45943;53.148;8.204;2022-11-28T12:57:01;101199.59;;;7.86;100.00
49216;BME280;45943;53.148;8.204;2022-11-28T12:59:39;101204.38;;;7.95;100.00
49216;BME280;45943;53.148;8.204;2022-11-28T13:05:28;101210.09;;;8.03;100.00
49216;BME280;45943;53.148;8.204;2022-11-28T13:10:46;101209.44;;;7.85;100.00
49216;BME280;45943;53.148;8.204;2022-11-28T13:19:07;101217.06;;;7.91;100.00
49216;BME280;45943;53.148;8.204;2022-11-28T13:22:13;101216.00;;;7.94;100.00
49216;BME280;45943;53.148;8.204;2022-11-28T13:27:38;101214.50;;;7.90;100.00
49216;BME280;45943;53.148;8.204;2022-11-28T13:30:23;101217.66;;;7.82;100.00
49216;BME280;45943;53.148;8.204;2022-11-28T13:35:23;101213.66;;;7.75;100.00
49216;BME280;45943;53.148;8.204;2022-11-28T13:40:36;101218.31;;;7.86;100.00
49216;BME280;45943;53.148;8.204;2022-11-28T13:43:11;101216.31;;;7.75;100.00
49216;BME280;45943;53.148;8.204;2022-11-28T13:45:43;101217.66;;;7.82;100.00
49216;BME280;45943;53.148;8.204;2022-11-28T13:51:01;101219.00;;;7.89;100.00
49216;BME280;45943;53.148;8.204;2022-11-28T13:53:28;101213.75;;;7.88;100.00
49216;BME280;45943;53.148;8.204;2022-11-28T13:58:42;101222.41;;;7.91;100.00
49216;BME280;45943;53.148;8.204;2022-11-28T14:01:16;101224.59;;;7.99;100.00
49216;BME280;45943;53.148;8.204;2022-11-28T14:03:48;101227.06;;;8.02;100.00
49216;BME280;45943;53.148;8.204;2022-11-28T14:07:03;101228.81;;;7.89;100.00
49216;BME280;45943;53.148;8.204;2022-11-28T14:11:42;101238.91;;;7.84;100.00
49216;BME280;45943;53.148;8.204;2022-11-28T14:20:10;101248.06;;;7.94;100.00
49216;BME280;45943;53.148;8.204;2022-11-28T14:23:08;101247.63;;;7.87;100.00
49216;BME280;45943;53.148;8.204;2022-11-28T14:25:55;101242.56;;;7.97;100.00
49216;BME280;45943;53.148;8.204;2022-11-28T14:28:30;101250.94;;;7.91;100.00
49216;BME280;45943;53.148;8.204;2022-11-28T14:31:19;101256.28;;;7.91;100.00
49216;BME280;45943;53.148;8.204;2022-11-28T14:33:56;101259.22;;;7.86;100.00
49216;BME280;45943;53.148;8.204;2022-11-28T14:36:36;101269.44;;;7.94;100.00
49216;BME280;45943;53.148;8.204;2022-11-28T14:42:39;101267.16;;;8.02;100.00
49216;BME280;45943;53.148;8.204;2022-11-28T14:47:14;101272.13;;;8.08;100.00
49216;BME280;45943;53.148;8.204;2022-11-28T14:52:32;101270.09;;;8.12;100.00
49216;BME280;45943;53.148;8.204;2022-11-28T14:55:02;101277.75;;;8.18;100.00
49216;BME280;45943;53.148;8.204;2022-11-28T15:03:22;101282.31;;;8.01;100.00
49216;BME280;45943;53.148;8.204;2022-11-28T15:06:22;101279.09;;;7.96;100.00
49216;BME280;45943;53.148;8.204;2022-11-28T15:09:06;101278.19;;;7.96;100.00
49216;BME280;45943;53.148;8.204;2022-11-28T15:14:24;101285.75;;;8.03;100.00
49216;BME280;45943;53.148;8.204;2022-11-28T15:16:56;101282.00;;;8.06;100.00
49216;BME280;45943;53.148;8.204;2022-11-28T15:25:03;101281.47;;;8.01;100.00
49216;BME280;45943;53.148;8.204;2022-11-28T15:27:41;101285.66;;;8.05;100.00
49216;BME280;45943;53.148;8.204;2022-11-28T15:30:18;101292.72;;;8.20;100.00
49216;BME280;45943;53.148;8.204;2022-11-28T15:32:46;101292.06;;;8.17;100.00
49216;BME280;45943;53.148;8.204;2022-11-28T15:35:13;101294.22;;;8.24;100.00
49216;BME280;45943;53.148;8.204;2022-11-28T15:37:57;101290.69;;;8.24;100.00
49216;BME280;45943;53.148;8.204;2022-11-28T15:40:25;101292.53;;;8.09;100.00
49216;BME280;45943;53.148;8.204;2022-11-28T15:42:55;101294.91;;;7.99;100.00
49216;BME280;45943;53.148;8.204;2022-11-28T15:45:24;101286.69;;;8.02;100.00